createdAt,value
2023-04-18T00:00:25.073Z,12.02
2023-04-18T00:02:55.279Z,11.15
2023-04-18T00:05:23.444Z,12.23
2023-04-18T00:07:51.691Z,10.80
2023-04-18T00:10:19.509Z,11.82
2023-04-18T00:12:47.621Z,12.00
2023-04-18T00:15:15.190Z,11.57
2023-04-18T00:17:43.125Z,11.95
2023-04-18T00:20:11.431Z,11.95
2023-04-18T00:22:43.104Z,11.60
2023-04-18T00:25:11.507Z,11.18
2023-04-18T00:27:40.007Z,11.38
2023-04-18T00:30:10.079Z,10.52
2023-04-18T00:32:37.939Z,11.93
2023-04-18T00:35:06.072Z,11.27
2023-04-18T00:37:33.689Z,11.95
2023-04-18T00:40:01.342Z,11.00
2023-04-18T00:42:29.523Z,10.52
2023-04-18T00:44:57.102Z,11.80
2023-04-18T00:47:24.756Z,11.80
2023-04-18T00:49:52.788Z,11.48
2023-04-18T00:52:20.764Z,11.98
2023-04-18T00:54:48.403Z,11.25
2023-04-18T00:57:16.664Z,11.20
2023-04-18T00:59:47.151Z,10.82
2023-04-18T01:02:14.911Z,11.35
2023-04-18T01:04:43.982Z,11.30
2023-04-18T01:07:12.310Z,11.13
2023-04-18T01:09:41.502Z,11.02
2023-04-18T01:12:09.023Z,11.38
2023-04-18T01:14:36.551Z,10.38
2023-04-18T01:17:04.152Z,11.20
2023-04-18T01:19:31.922Z,10.75
2023-04-18T01:21:59.465Z,10.68
2023-04-18T01:24:29.906Z,10.82
2023-04-18T01:26:58.230Z,10.18
2023-04-18T01:29:26.266Z,9.90
2023-04-18T01:31:54.002Z,10.18
2023-04-18T01:34:21.564Z,10.20
2023-04-18T01:36:49.295Z,10.25
2023-04-18T01:39:18.544Z,11.30
2023-04-18T01:41:45.998Z,11.27
2023-04-18T01:44:13.848Z,10.63
2023-04-18T01:46:42.001Z,11.77
2023-04-18T01:49:10.083Z,10.82
2023-04-18T01:51:39.135Z,10.68
2023-04-18T01:54:06.682Z,10.48
2023-04-18T01:56:34.185Z,9.82
2023-04-18T01:59:01.836Z,10.68
2023-04-18T02:01:29.749Z,10.43
2023-04-18T02:03:57.421Z,9.88
2023-04-18T02:06:25.109Z,8.68
2023-04-18T02:08:52.620Z,10.23
2023-04-18T02:11:20.179Z,9.63
2023-04-18T02:13:47.672Z,10.35
2023-04-18T02:16:15.438Z,10.70
2023-04-18T02:18:43.882Z,10.07
2023-04-18T02:21:12.112Z,9.80
2023-04-18T02:23:39.792Z,10.00
2023-04-18T02:26:07.403Z,9.95
2023-04-18T02:28:34.961Z,10.27
2023-04-18T02:31:02.590Z,10.65
2023-04-18T02:33:31.000Z,9.82
2023-04-18T02:35:58.503Z,9.80
2023-04-18T02:38:26.208Z,9.77
2023-04-18T02:40:54.021Z,9.65
2023-04-18T02:43:21.519Z,10.30
2023-04-18T02:45:49.161Z,9.68
2023-04-18T02:48:16.702Z,10.10
2023-04-18T02:50:44.240Z,9.23
2023-04-18T02:53:11.904Z,9.65
2023-04-18T02:55:39.350Z,9.43
2023-04-18T02:58:07.679Z,9.07
2023-04-18T03:00:35.345Z,9.43
2023-04-18T03:03:03.073Z,10.00
2023-04-18T03:05:31.004Z,10.02
2023-04-18T03:07:58.839Z,9.98
2023-04-18T03:10:26.349Z,10.02
2023-04-18T03:12:53.852Z,9.85
2023-04-18T03:15:22.006Z,9.80
2023-04-18T03:17:50.575Z,10.35
2023-04-18T03:20:18.370Z,10.18
2023-04-18T03:22:46.011Z,9.20
2023-04-18T03:25:13.460Z,9.60
2023-04-18T03:27:41.069Z,10.00
2023-04-18T03:30:09.369Z,8.88
2023-04-18T03:32:36.879Z,9.40
2023-04-18T03:35:04.557Z,9.13
2023-04-18T03:37:32.241Z,8.82
2023-04-18T03:39:59.740Z,9.32
2023-04-18T03:42:27.230Z,9.10
2023-04-18T03:44:54.756Z,8.98
2023-04-18T03:47:22.450Z,8.95
2023-04-18T03:49:49.956Z,9.35
2023-04-18T03:52:17.512Z,8.70
2023-04-18T03:54:45.194Z,9.77
2023-04-18T03:57:12.708Z,8.75
2023-04-18T03:59:40.265Z,9.98
2023-04-18T04:02:07.950Z,9.65
2023-04-18T04:04:35.570Z,9.13
2023-04-18T04:07:03.376Z,9.07
2023-04-18T04:09:30.992Z,8.70
2023-04-18T04:11:58.564Z,9.05
2023-04-18T04:14:26.137Z,8.85
2023-04-18T04:16:53.679Z,9.57
2023-04-18T04:19:21.257Z,9.43
2023-04-18T04:21:48.856Z,10.48
2023-04-18T04:24:16.588Z,9.40
2023-04-18T04:26:44.209Z,9.65
2023-04-18T04:29:13.993Z,9.45
2023-04-18T04:31:41.624Z,10.15
2023-04-18T04:34:09.142Z,10.18
2023-04-18T04:36:36.764Z,8.95
2023-04-18T04:39:04.379Z,9.73
2023-04-18T04:41:31.847Z,9.13
2023-04-18T04:43:59.824Z,10.18
2023-04-18T04:46:30.395Z,9.43
2023-04-18T04:48:58.074Z,9.60
2023-04-18T04:51:26.432Z,8.77
2023-04-18T04:53:54.016Z,8.95
2023-04-18T04:56:22.977Z,8.88
2023-04-18T04:58:50.647Z,8.65
2023-04-18T05:01:18.452Z,9.10
2023-04-18T05:03:46.019Z,9.55
2023-04-18T05:06:14.524Z,9.88
2023-04-18T05:08:42.013Z,9.52
2023-04-18T05:11:09.726Z,8.48
2023-04-18T05:13:37.168Z,9.00
2023-04-18T05:16:04.951Z,8.00
2023-04-18T05:18:34.861Z,8.90
2023-04-18T05:21:02.493Z,9.00
2023-04-18T05:23:29.954Z,8.70
2023-04-18T05:25:57.404Z,7.78
2023-04-18T05:28:26.906Z,8.68
2023-04-18T05:31:01.303Z,8.13
2023-04-18T05:33:29.765Z,7.85
2023-04-18T05:35:58.858Z,8.13
2023-04-18T05:38:26.541Z,9.07
2023-04-18T05:40:55.970Z,8.30
2023-04-18T05:43:23.535Z,8.15
2023-04-18T05:45:52.733Z,6.93
2023-04-18T05:48:21.522Z,8.18
2023-04-18T05:50:49.236Z,7.07
2023-04-18T05:53:16.788Z,6.97
2023-04-18T05:55:46.678Z,6.88
2023-04-18T05:58:14.219Z,6.70
2023-04-18T06:00:43.526Z,6.05
2023-04-18T06:03:11.699Z,6.15
2023-04-18T06:05:41.222Z,6.60
2023-04-18T06:08:08.700Z,6.47
2023-04-18T06:10:38.492Z,5.93
2023-04-18T06:13:06.582Z,6.10
2023-04-18T06:15:35.814Z,6.13
2023-04-18T06:18:03.583Z,6.22
2023-04-18T06:20:31.035Z,5.70
2023-04-18T06:22:58.505Z,5.32
2023-04-18T06:25:26.182Z,6.38
2023-04-18T06:27:53.598Z,6.10
2023-04-18T06:30:22.183Z,6.20
2023-04-18T06:32:50.638Z,5.90
2023-04-18T06:35:18.460Z,5.82
2023-04-18T06:37:46.320Z,5.63
2023-04-18T06:40:14.095Z,5.93
2023-04-18T06:42:42.718Z,4.80
2023-04-18T06:45:13.920Z,5.63
2023-04-18T06:47:41.469Z,5.20
2023-04-18T06:50:10.011Z,5.60
2023-04-18T06:52:40.794Z,5.55
2023-04-18T06:55:09.343Z,5.57
2023-04-18T06:57:41.013Z,5.15
2023-04-18T07:00:10.191Z,5.63
2023-04-18T07:02:40.238Z,5.22
2023-04-18T07:05:08.469Z,5.15
2023-04-18T07:07:36.035Z,5.55
2023-04-18T07:10:03.676Z,5.25
2023-04-18T07:12:31.084Z,5.35
2023-04-18T07:14:58.727Z,4.85
2023-04-18T07:17:26.278Z,5.13
2023-04-18T07:19:54.013Z,5.60
2023-04-18T07:22:21.500Z,5.22
2023-04-18T07:24:49.012Z,5.25
2023-04-18T07:27:16.504Z,4.97
2023-04-18T07:29:44.076Z,4.75
2023-04-18T07:32:11.569Z,5.43
2023-04-18T07:34:40.393Z,5.72
2023-04-18T07:37:07.975Z,5.25
2023-04-18T07:39:36.555Z,5.40
2023-04-18T07:42:04.761Z,5.57
2023-04-18T07:44:32.315Z,5.22
2023-04-18T07:47:00.240Z,5.20
2023-04-18T07:49:27.955Z,5.13
2023-04-18T07:51:56.740Z,4.97
2023-04-18T07:54:24.249Z,5.65
2023-04-18T07:56:51.793Z,4.55
2023-04-18T07:59:19.314Z,5.57
2023-04-18T08:01:46.787Z,5.95
2023-04-18T08:04:15.191Z,5.35
2023-04-18T08:06:42.747Z,5.70
2023-04-18T08:09:10.532Z,5.05
2023-04-18T08:11:39.084Z,6.20
2023-04-18T08:14:06.564Z,5.15
2023-04-18T08:16:34.032Z,5.63
2023-04-18T08:19:01.683Z,5.45
2023-04-18T08:21:29.361Z,5.40
2023-04-18T08:23:57.161Z,5.43
2023-04-18T08:26:24.634Z,5.15
2023-04-18T08:28:52.222Z,5.30
2023-04-18T08:31:19.761Z,6.25
2023-04-18T08:33:47.232Z,5.57
2023-04-18T08:36:14.939Z,5.75
2023-04-18T08:38:42.448Z,5.75
2023-04-18T08:41:09.931Z,6.03
2023-04-18T08:43:38.265Z,5.43
2023-04-18T08:46:06.005Z,5.68
2023-04-18T08:48:33.475Z,5.75
2023-04-18T08:51:02.432Z,6.30
2023-04-18T08:53:32.540Z,5.63
2023-04-18T08:56:01.607Z,6.45
2023-04-18T08:58:33.922Z,5.78
2023-04-18T09:01:01.671Z,5.43
2023-04-18T09:03:55.582Z,6.68
2023-04-18T09:08:59.141Z,6.25
2023-04-18T09:11:29.506Z,7.00
2023-04-18T09:13:59.118Z,6.90
2023-04-18T09:16:27.855Z,6.13
2023-04-18T09:19:13.150Z,5.50
2023-04-18T09:21:42.949Z,6.95
2023-04-18T09:24:25.092Z,6.65
2023-04-18T09:26:57.029Z,7.10
2023-04-18T09:29:46.816Z,7.30
2023-04-18T09:32:20.874Z,7.00
2023-04-18T09:34:48.346Z,6.95
2023-04-18T09:37:16.134Z,5.97
2023-04-18T09:39:44.714Z,6.90
2023-04-18T09:42:12.621Z,6.70
2023-04-18T09:45:00.054Z,7.03
2023-04-18T09:47:28.469Z,5.95
2023-04-18T09:49:56.042Z,5.95
2023-04-18T09:52:28.068Z,5.45
2023-04-18T09:55:00.230Z,6.00
2023-04-18T09:57:29.544Z,5.78
2023-04-18T10:00:27.942Z,5.30
2023-04-18T10:02:58.683Z,5.28
2023-04-18T10:05:33.988Z,5.38
2023-04-18T10:08:01.978Z,5.30
2023-04-18T10:10:29.751Z,5.00
2023-04-18T10:12:58.891Z,5.72
2023-04-18T10:15:28.877Z,5.15
2023-04-18T10:18:05.241Z,4.03
2023-04-18T10:20:35.467Z,4.75
2023-04-18T10:23:40.784Z,5.50
2023-04-18T10:26:09.863Z,5.25
2023-04-18T10:28:57.438Z,5.38
2023-04-18T10:31:26.624Z,5.38
2023-04-18T10:36:29.039Z,5.60
2023-04-18T10:39:03.207Z,6.47
2023-04-18T10:41:32.979Z,5.70
2023-04-18T10:44:14.690Z,6.30
2023-04-18T10:47:08.850Z,5.80
2023-04-18T10:52:06.212Z,5.82
2023-04-18T10:54:51.850Z,5.22
2023-04-18T10:57:19.353Z,5.32
2023-04-18T10:59:52.195Z,5.50
2023-04-18T11:02:32.610Z,6.15
2023-04-18T11:05:02.330Z,6.85
2023-04-18T11:07:39.990Z,6.60
2023-04-18T11:10:09.674Z,6.57
2023-04-18T11:12:39.296Z,5.63
2023-04-18T11:15:12.574Z,5.90
2023-04-18T11:17:41.186Z,5.63
2023-04-18T11:20:12.933Z,5.88
2023-04-18T11:22:51.515Z,6.20
2023-04-18T11:25:22.392Z,6.50
2023-04-18T11:27:55.850Z,7.30
2023-04-18T11:32:51.888Z,7.47
2023-04-18T11:35:19.491Z,6.88
2023-04-18T11:37:47.088Z,7.53
2023-04-18T11:40:14.662Z,7.05
2023-04-18T11:42:42.954Z,8.00
2023-04-18T11:45:11.979Z,7.80
2023-04-18T11:47:42.014Z,7.57
2023-04-18T11:50:11.678Z,8.10
2023-04-18T11:52:42.640Z,7.22
2023-04-18T11:55:24.654Z,6.97
2023-04-18T11:57:54.181Z,6.35
2023-04-18T12:00:36.027Z,5.95
2023-04-18T12:03:05.892Z,5.13
2023-04-18T12:05:38.169Z,5.38
2023-04-18T12:08:19.479Z,4.97
2023-04-18T12:10:49.233Z,5.07
2023-04-18T12:13:17.388Z,4.70
2023-04-18T12:15:47.291Z,4.15
2023-04-18T12:18:18.246Z,4.20
2023-04-18T12:20:50.211Z,4.35
2023-04-18T12:23:46.637Z,4.00
2023-04-18T12:26:20.390Z,3.70
2023-04-18T12:28:51.313Z,3.63
2023-04-18T12:31:18.929Z,3.88
2023-04-18T12:33:46.718Z,3.75
2023-04-18T12:36:14.398Z,3.60
2023-04-18T12:38:41.984Z,3.95
2023-04-18T12:41:09.837Z,3.53
2023-04-18T12:43:37.422Z,3.45
2023-04-18T12:46:05.188Z,3.53
2023-04-18T12:48:32.732Z,3.67
2023-04-18T12:51:00.484Z,3.90
2023-04-18T12:53:28.065Z,3.58
2023-04-18T12:55:55.576Z,3.50
2023-04-18T12:58:23.194Z,3.88
2023-04-18T13:00:50.779Z,3.90
2023-04-18T13:03:18.512Z,3.70
2023-04-18T13:05:46.531Z,4.75
2023-04-18T13:08:17.760Z,4.22
2023-04-18T13:10:46.503Z,4.35
2023-04-18T13:13:14.156Z,5.18
2023-04-18T13:15:41.762Z,5.55
2023-04-18T13:18:09.401Z,6.00
2023-04-18T13:20:37.316Z,6.22
2023-04-18T13:23:05.126Z,6.38
2023-04-18T13:25:32.738Z,6.07
2023-04-18T13:28:01.214Z,6.72
2023-04-18T13:30:29.084Z,6.63
2023-04-18T13:32:56.980Z,6.18
2023-04-18T13:35:24.610Z,6.20
2023-04-18T13:37:52.212Z,6.32
2023-04-18T13:40:19.845Z,5.93
2023-04-18T13:42:47.384Z,6.05
2023-04-18T13:45:14.899Z,6.40
2023-04-18T13:47:42.589Z,6.05
2023-04-18T13:50:11.148Z,6.53
2023-04-18T13:52:38.672Z,6.30
2023-04-18T13:55:06.903Z,6.47
2023-04-18T13:57:34.821Z,6.07
2023-04-18T14:00:02.461Z,6.45
2023-04-18T14:02:30.212Z,7.25
2023-04-18T14:04:58.529Z,7.25
2023-04-18T14:07:26.431Z,7.50
2023-04-18T14:09:54.174Z,7.15
2023-04-18T14:12:22.528Z,6.78
2023-04-18T14:14:50.087Z,6.93
2023-04-18T14:17:17.578Z,7.38
2023-04-18T14:19:45.123Z,6.97
2023-04-18T14:22:12.739Z,6.32
2023-04-18T14:24:40.277Z,6.15
2023-04-18T14:27:07.932Z,6.60
2023-04-18T14:29:35.673Z,7.53
2023-04-18T14:32:03.237Z,6.50
2023-04-18T14:34:33.289Z,6.10
2023-04-18T14:37:01.615Z,5.95
2023-04-18T14:39:29.126Z,6.70
2023-04-18T14:41:57.834Z,7.00
2023-04-18T14:44:27.100Z,6.97
2023-04-18T14:46:54.721Z,8.00
2023-04-18T14:49:22.457Z,7.88
2023-04-18T14:51:50.941Z,7.30
2023-04-18T14:54:18.892Z,8.18
2023-04-18T14:56:46.884Z,7.85
2023-04-18T14:59:16.566Z,8.32
2023-04-18T15:01:45.292Z,8.38
2023-04-18T15:04:13.270Z,7.15
2023-04-18T15:06:41.612Z,7.43
2023-04-18T15:09:09.115Z,7.43
2023-04-18T15:11:37.414Z,8.23
2023-04-18T15:14:04.887Z,7.47
2023-04-18T15:16:32.646Z,7.50
2023-04-18T15:19:00.630Z,8.02
2023-04-18T15:21:30.480Z,6.93
2023-04-18T15:23:59.162Z,8.65
2023-04-18T15:26:26.963Z,8.07
2023-04-18T15:28:54.630Z,8.20
2023-04-18T15:31:22.216Z,8.90
2023-04-18T15:33:49.796Z,7.43
2023-04-18T15:36:18.394Z,9.07
2023-04-18T15:38:45.932Z,8.32
2023-04-18T15:41:13.498Z,8.05
2023-04-18T15:43:42.045Z,8.75
2023-04-18T15:46:09.945Z,8.02
2023-04-18T15:48:37.628Z,7.60
2023-04-18T15:51:05.481Z,8.30
2023-04-18T15:53:33.115Z,6.97
2023-04-18T15:56:01.934Z,8.07
2023-04-18T15:58:30.720Z,7.78
2023-04-18T16:00:58.906Z,8.68
2023-04-18T16:03:26.507Z,8.32
2023-04-18T16:05:54.195Z,8.20
2023-04-18T16:08:21.728Z,8.20
2023-04-18T16:10:52.110Z,7.53
2023-04-18T16:13:20.370Z,8.45
2023-04-18T16:15:48.932Z,8.88
2023-04-18T16:18:16.668Z,8.55
2023-04-18T16:20:44.263Z,8.15
2023-04-18T16:23:11.866Z,8.75
2023-04-18T16:25:39.493Z,9.00
2023-04-18T16:28:07.108Z,9.02
2023-04-18T16:30:34.668Z,9.23
2023-04-18T16:33:02.480Z,10.60
2023-04-18T16:35:30.331Z,11.80
2023-04-18T16:37:57.981Z,11.30
2023-04-18T16:40:30.593Z,11.65
2023-04-18T16:42:58.754Z,11.80
2023-04-18T16:45:26.292Z,11.30
2023-04-18T16:47:53.957Z,10.43
2023-04-18T16:50:22.858Z,11.80
2023-04-18T16:52:50.449Z,12.13
2023-04-18T16:55:17.938Z,12.02
2023-04-18T16:57:45.446Z,11.00
2023-04-18T17:00:14.600Z,12.93
2023-04-18T17:02:43.458Z,12.40
2023-04-18T17:05:11.328Z,11.73
2023-04-18T17:07:38.719Z,11.68
2023-04-18T17:10:08.294Z,10.68
2023-04-18T17:12:38.733Z,12.75
2023-04-18T17:15:07.737Z,11.77
2023-04-18T17:17:36.923Z,11.68
2023-04-18T17:20:07.579Z,11.75
2023-04-18T17:22:37.045Z,11.43
2023-04-18T17:25:06.319Z,11.35
2023-04-18T17:27:34.300Z,11.35
2023-04-18T17:30:02.080Z,12.18
2023-04-18T17:32:29.571Z,12.38
2023-04-18T17:34:57.138Z,10.98
2023-04-18T17:37:24.606Z,11.50
2023-04-18T17:39:52.284Z,11.55
2023-04-18T17:42:21.261Z,12.23
2023-04-18T17:44:49.187Z,11.55
2023-04-18T17:47:16.636Z,12.35
2023-04-18T17:49:44.188Z,12.80
2023-04-18T17:52:11.683Z,12.77
2023-04-18T17:54:39.105Z,13.13
2023-04-18T17:57:06.476Z,13.77
2023-04-18T17:59:37.732Z,12.35
2023-04-18T18:02:05.666Z,12.75
2023-04-18T18:04:33.477Z,12.32
2023-04-18T18:07:01.232Z,12.85
2023-04-18T18:09:28.624Z,12.55
2023-04-18T18:11:56.177Z,13.82
2023-04-18T18:14:23.745Z,13.00
2023-04-18T18:16:51.190Z,12.50
2023-04-18T18:19:18.954Z,13.45
2023-04-18T18:21:47.317Z,12.27
2023-04-18T18:24:15.015Z,12.73
2023-04-18T18:26:43.109Z,12.13
2023-04-18T18:29:13.389Z,12.10
2023-04-18T18:31:41.739Z,12.45
2023-04-18T18:34:09.794Z,11.65
2023-04-18T18:36:37.494Z,12.27
2023-04-18T18:39:04.952Z,12.00
2023-04-18T18:41:32.394Z,11.75
2023-04-18T18:44:00.223Z,11.55
2023-04-18T18:46:28.783Z,12.18
2023-04-18T18:48:56.506Z,11.15
2023-04-18T18:51:24.090Z,11.32
2023-04-18T18:53:51.496Z,11.20
2023-04-18T18:56:18.952Z,11.82
2023-04-18T18:58:49.121Z,11.52
2023-04-18T19:01:16.870Z,11.18
2023-04-18T19:03:44.758Z,11.20
2023-04-18T19:06:12.521Z,11.07
2023-04-18T19:08:39.919Z,11.32
2023-04-18T19:11:07.328Z,10.23
2023-04-18T19:13:34.876Z,11.20
2023-04-18T19:16:02.376Z,11.10
2023-04-18T19:18:29.881Z,10.77
2023-04-18T19:20:57.393Z,11.90
2023-04-18T19:23:25.404Z,11.02
2023-04-18T19:25:52.834Z,11.50
2023-04-18T19:28:20.378Z,10.63
2023-04-18T19:30:48.096Z,10.68
2023-04-18T19:33:15.822Z,10.82
2023-04-18T19:35:43.312Z,10.80
2023-04-18T19:38:10.827Z,11.35
2023-04-18T19:40:38.308Z,11.00
2023-04-18T19:43:05.802Z,11.32
2023-04-18T19:45:33.271Z,11.40
2023-04-18T19:48:01.384Z,10.82
2023-04-18T19:50:28.985Z,10.77
2023-04-18T19:52:56.363Z,10.60
2023-04-18T19:55:23.959Z,11.75
2023-04-18T19:57:55.869Z,11.35
2023-04-18T20:00:23.615Z,11.90
2023-04-18T20:02:51.675Z,11.13
2023-04-18T20:05:19.681Z,11.00
2023-04-18T20:07:47.318Z,11.98
2023-04-18T20:10:14.709Z,10.50
2023-04-18T20:12:42.128Z,10.73
2023-04-18T20:15:09.917Z,12.27
2023-04-18T20:17:37.520Z,11.20
2023-04-18T20:20:08.834Z,11.35
2023-04-18T20:22:37.685Z,10.95
2023-04-18T20:25:05.948Z,11.30
2023-04-18T20:27:33.607Z,10.25
2023-04-18T20:30:01.031Z,10.85
2023-04-18T20:32:28.478Z,10.73
2023-04-18T20:34:56.470Z,11.75
2023-04-18T20:37:24.833Z,11.35
2023-04-18T20:39:54.755Z,10.52
2023-04-18T20:42:22.918Z,10.32
2023-04-18T20:44:50.573Z,11.40
2023-04-18T20:47:18.206Z,10.45
2023-04-18T20:49:45.822Z,11.77
2023-04-18T20:52:14.533Z,11.70
2023-04-18T20:54:42.283Z,10.95
2023-04-18T20:57:09.909Z,10.90
2023-04-18T20:59:37.526Z,11.15
2023-04-18T21:02:06.466Z,11.45
2023-04-18T21:04:34.341Z,10.93
2023-04-18T21:07:01.808Z,11.77
2023-04-18T21:09:31.039Z,11.07
2023-04-18T21:11:58.671Z,11.75
2023-04-18T21:14:26.119Z,10.80
2023-04-18T21:16:54.823Z,11.02
2023-04-18T21:19:22.627Z,10.93
2023-04-18T21:21:50.428Z,11.65
2023-04-18T21:24:19.008Z,10.30
2023-04-18T21:26:46.449Z,9.93
2023-04-18T21:29:13.890Z,10.82
2023-04-18T21:31:41.383Z,11.27
2023-04-18T21:34:10.375Z,11.27
2023-04-18T21:36:40.191Z,10.80
2023-04-18T21:39:08.437Z,10.30
2023-04-18T21:41:36.225Z,10.68
2023-04-18T21:44:03.779Z,9.93
2023-04-18T21:46:31.255Z,11.10
2023-04-18T21:48:58.765Z,10.50
2023-04-18T21:51:27.406Z,11.10
2023-04-18T21:53:54.941Z,10.50
2023-04-18T21:56:22.727Z,11.00
2023-04-18T21:58:50.139Z,11.07
2023-04-18T22:01:17.687Z,10.52
2023-04-18T22:03:45.534Z,11.40
2023-04-18T22:06:13.505Z,10.65
2023-04-18T22:08:41.763Z,10.73
2023-04-18T22:11:11.769Z,11.25
2023-04-18T22:13:39.452Z,10.48
2023-04-18T22:16:08.345Z,11.02
2023-04-18T22:18:37.586Z,9.50
2023-04-18T22:21:06.197Z,11.57
2023-04-18T22:23:33.664Z,10.43
2023-04-18T22:26:01.489Z,11.43
2023-04-18T22:28:29.124Z,11.00
2023-04-18T22:30:56.589Z,10.27
2023-04-18T22:33:24.571Z,10.55
2023-04-18T22:35:54.278Z,10.57
2023-04-18T22:38:21.701Z,10.90
2023-04-18T22:40:49.178Z,11.88
2023-04-18T22:43:22.738Z,11.48
2023-04-18T22:45:51.289Z,11.10
2023-04-18T22:48:19.309Z,11.88
2023-04-18T22:50:47.790Z,10.80
2023-04-18T22:53:16.216Z,11.30
2023-04-18T22:55:44.867Z,10.35
2023-04-18T22:58:12.816Z,10.40
2023-04-18T23:00:40.472Z,11.00
2023-04-18T23:03:08.261Z,11.00
2023-04-18T23:05:35.849Z,9.60
2023-04-18T23:08:03.532Z,10.27
2023-04-18T23:10:31.373Z,8.55
2023-04-18T23:12:59.189Z,9.50
2023-04-18T23:15:27.206Z,10.13
2023-04-18T23:17:54.935Z,10.52
2023-04-18T23:20:24.042Z,9.82
2023-04-18T23:22:51.989Z,8.90
2023-04-18T23:25:20.053Z,8.98
2023-04-18T23:27:48.163Z,8.60
2023-04-18T23:30:16.020Z,8.75
2023-04-18T23:32:43.643Z,9.18
2023-04-18T23:35:11.841Z,9.82
2023-04-18T23:37:39.505Z,8.55
2023-04-18T23:40:08.071Z,9.85
2023-04-18T23:42:36.103Z,10.02
2023-04-18T23:45:04.632Z,9.98
2023-04-18T23:47:32.271Z,9.60
2023-04-18T23:49:59.849Z,9.38
2023-04-18T23:52:27.530Z,9.07
2023-04-18T23:54:55.810Z,9.20
2023-04-18T23:57:23.275Z,9.27
2023-04-18T23:59:50.852Z,9.93
